createdAt,value
2018-12-09T00:04:14.711Z,30
2018-12-09T00:14:13.916Z,30.8
2018-12-09T00:24:13.125Z,31.5
2018-12-09T00:34:12.325Z,32.3
2018-12-09T00:44:11.544Z,33
2018-12-09T00:54:10.741Z,33.7
2018-12-09T01:04:09.943Z,34.4
2018-12-09T01:14:09.156Z,35.2
2018-12-09T01:24:08.360Z,35.9
2018-12-09T01:34:07.566Z,36.7
2018-12-09T01:44:06.768Z,37.4
2018-12-09T01:54:05.980Z,38.1
2018-12-09T02:04:05.188Z,38.9
2018-12-09T02:14:04.392Z,39.6
2018-12-09T02:24:03.644Z,40.3
2018-12-09T02:34:02.798Z,41
2018-12-09T02:44:02.012Z,41.7
2018-12-09T02:54:01.206Z,42.4
2018-12-09T03:04:00.414Z,43.1
2018-12-09T03:13:59.619Z,43.8
2018-12-09T03:23:58.828Z,44.4
2018-12-09T03:33:58.039Z,45.1
2018-12-09T03:43:57.241Z,45.8
2018-12-09T03:53:56.443Z,46.5
2018-12-09T04:03:55.649Z,47.1
2018-12-09T04:13:54.857Z,47
2018-12-09T04:23:54.061Z,47
2018-12-09T04:33:53.265Z,47
2018-12-09T04:43:52.476Z,46.9
2018-12-09T04:53:51.671Z,46.8
2018-12-09T05:03:50.874Z,46.8
2018-12-09T05:13:50.077Z,46.8
2018-12-09T05:23:49.283Z,46.8
2018-12-09T05:33:48.497Z,46.7
2018-12-09T05:43:47.716Z,40.4
2018-12-09T05:53:46.906Z,40.1
2018-12-09T06:03:46.115Z,37.6
2018-12-09T06:13:45.320Z,27.3
2018-12-09T06:23:44.529Z,25.7
2018-12-09T06:33:43.742Z,25.5
2018-12-09T06:43:42.950Z,21.6
2018-12-09T06:53:42.155Z,21.4
2018-12-09T07:03:41.369Z,21.4
2018-12-09T07:13:40.579Z,21.3
2018-12-09T07:23:39.801Z,21.1
2018-12-09T07:33:39.008Z,21.1
2018-12-09T07:43:38.211Z,20.9
2018-12-09T07:53:37.420Z,20.9
2018-12-09T08:03:36.639Z,20.8
2018-12-09T08:13:35.903Z,20.7
2018-12-09T14:39:43.856Z,30.4
2018-12-09T14:49:43.083Z,30.3
2018-12-09T14:59:42.285Z,30.3
2018-12-09T15:09:41.499Z,30.2
2018-12-09T15:19:40.708Z,29.8
2018-12-09T15:29:39.923Z,28.1
2018-12-09T15:39:39.147Z,27.6
2018-12-09T15:49:38.462Z,27.3
2018-12-09T15:59:37.744Z,25.6
2018-12-09T16:09:37.037Z,25.4
2018-12-09T16:19:36.339Z,24.6
2018-12-09T16:29:35.640Z,24.4
2018-12-09T16:39:34.891Z,21.4
2018-12-09T16:49:34.112Z,19.6
2018-12-09T16:59:33.326Z,19.6
2018-12-09T17:09:32.550Z,19.6
2018-12-09T17:19:31.758Z,19.5
2018-12-09T17:29:30.999Z,18.8
2018-12-09T17:39:30.190Z,18.2
2018-12-09T17:49:29.417Z,18.3
2018-12-09T17:59:28.631Z,18.1
2018-12-09T18:09:27.872Z,17.3
2018-12-09T18:19:27.054Z,16.8
2018-12-09T18:29:26.325Z,16.4
2018-12-09T18:39:25.486Z,16.1
2018-12-09T18:49:24.707Z,16
2018-12-09T18:59:23.921Z,16.1
2018-12-09T19:09:23.192Z,16
2018-12-09T19:19:22.353Z,16
2018-12-09T19:29:21.568Z,15.9
2018-12-09T19:39:20.799Z,15.7
2018-12-09T19:49:20.015Z,15.6
2018-12-09T19:59:19.231Z,15.6
2018-12-09T20:09:18.451Z,14.8
2018-12-09T20:19:17.667Z,14.2
2018-12-09T20:29:16.883Z,14.3
2018-12-09T20:39:16.107Z,14.3
2018-12-09T20:49:15.315Z,14.4
2018-12-09T20:59:14.532Z,14.4
2018-12-09T21:09:13.751Z,14.3
2018-12-09T21:19:12.968Z,14.4
2018-12-09T21:29:12.175Z,14.4
2018-12-09T21:39:11.389Z,14.4
2018-12-09T21:49:10.609Z,14.6
2018-12-09T21:59:09.817Z,14.8
2018-12-09T22:09:09.024Z,15.3
2018-12-09T22:19:08.242Z,16
2018-12-09T22:29:07.469Z,15.6
2018-12-09T22:39:06.685Z,15.7
2018-12-09T22:49:05.893Z,15.9
2018-12-09T22:59:05.114Z,16.3
2018-12-09T23:09:04.323Z,16.8
2018-12-09T23:19:03.541Z,17.2
2018-12-09T23:29:02.755Z,17.6
2018-12-09T23:39:02.519Z,18.2
2018-12-09T23:49:01.718Z,18.8
2018-12-09T23:59:00.929Z,19.3
